Warning: Javascript must be enabled to use all the features on this page!


Page Loading - Please Wait...

Click to hideNews Bulletins

Peak Streamflow for the Nation

USGS 02427250 PINE BARREN CREEK NEAR SNOW HILL, AL.

Wilcox County, Alabama
Hydrologic Unit Code 03150203
Latitude  31°59'46", Longitude  87°04'06" NAD27
Drainage area 261.00  square miles
Contributing drainage area 261  square miles
Gage datum 126.60 feet above NGVD29
Output formats
Table
Graph
Tab-separated file
peakfq (watstore) format
Reselect output format
Water
Year
Date Gage
Height
(feet)
Stream-
flow
(cfs)
1990 1990-03-17 24.30 23,900
1991 1991-05-11 17.93 5,160
1992 1992-02-18 17.44 4,870
1993 1992-12-18 22.19 10,100
1994 1993-11-15 16.26 4,210
1995 1995-03-08 17.58 4,950
1996 1996-01-28 21.48 8,570
1997 1996-12-02 19.07 5,870
1998 1998-09-30 24.73 28,600
1999 1999-03-15 20.48 7,190
2000 2000-03-20 13.65 2,740
2001 2001-03-04 25.70 30,400
2002 2002-03-22 16.07 3,610
2003 2002-12-25 21.28 10,800
2004 2004-09-17 21.37 11,000
2005 2005-04-02 21.07 10,200
2006 2006-05-11 18.00 4,650
2007 2006-11-17 19.43 6,550
2008 2008-08-26 15.68 3,460
2009 2009-03-29 20.68 9,200
2010 2009-12-14 20.84 9,590
2011 2011-03-11 17.45 4,290
2012 2012-09-05 21.68 8,300
2013 2013-02-11 22.27 10,400
2014 2014-04-08 24.10 17,900
2015 2015-04-17 16.32 3,700
2016 2015-12-27 19.83 5,280
2017 2017-06-23 21.74 8,700
2018 2018-05-30 14.98 3,030
2019 2018-12-29 22.20 10,700